createdAt,value
2018-12-16T00:00:28.551Z,69.08
2018-12-16T00:03:03.241Z,68.65
2018-12-16T00:05:34.703Z,68.84
2018-12-16T00:08:06.587Z,68.86
2018-12-16T00:10:37.531Z,69.06
2018-12-16T00:13:08.439Z,69.43
2018-12-16T00:15:39.502Z,68.82
2018-12-16T00:18:10.963Z,69.01
2018-12-16T00:20:42.475Z,68.35
2018-12-16T00:23:13.639Z,68.48
2018-12-16T00:25:48.300Z,67.90
2018-12-16T00:28:21.868Z,68.20
2018-12-16T00:30:53.258Z,68.83
2018-12-16T00:33:24.563Z,68.18
2018-12-16T00:35:55.662Z,67.94
2018-12-16T00:38:27.058Z,67.45
2018-12-16T00:40:58.795Z,67.93
2018-12-16T00:43:29.762Z,67.99
2018-12-16T00:46:00.751Z,68.37
2018-12-16T00:48:31.739Z,67.51
2018-12-16T00:51:05.411Z,67.20
2018-12-16T00:53:35.021Z,67.22
2018-12-16T01:01:08.887Z,67.24
2018-12-16T01:03:40.810Z,66.62
2018-12-16T01:06:11.807Z,67.07
2018-12-16T01:08:43.131Z,66.70
2018-12-16T01:11:14.583Z,66.38
2018-12-16T01:13:45.790Z,66.48
2018-12-16T01:16:17.870Z,66.13
2018-12-16T01:18:53.115Z,66.77
2018-12-16T01:21:24.738Z,66.08
2018-12-16T01:23:58.254Z,66.32
2018-12-16T01:26:29.594Z,66.29
2018-12-16T01:29:06.202Z,66.01
2018-12-16T01:31:37.671Z,65.65
2018-12-16T01:34:08.719Z,66.32
2018-12-16T01:36:39.828Z,66.44
2018-12-16T01:39:10.723Z,65.88
2018-12-16T01:41:44.437Z,66.21
2018-12-16T01:44:15.883Z,65.36
2018-12-16T01:46:46.783Z,65.47
2018-12-16T01:49:17.699Z,66.19
2018-12-16T01:51:48.852Z,65.79
2018-12-16T01:54:20.038Z,65.63
2018-12-16T01:56:51.239Z,65.14
2018-12-16T01:59:25.023Z,64.55
2018-12-16T02:01:56.140Z,64.85
2018-12-16T02:04:27.148Z,64.83
2018-12-16T02:06:58.211Z,64.82
2018-12-16T02:09:29.003Z,64.88
2018-12-16T02:12:00.036Z,64.83
2018-12-16T02:14:33.662Z,64.83
2018-12-16T02:17:05.295Z,63.91
2018-12-16T02:19:36.263Z,64.41
2018-12-16T02:22:07.140Z,65.07
2018-12-16T02:24:38.226Z,64.88
2018-12-16T02:27:09.057Z,64.58
2018-12-16T02:29:40.907Z,64.23
2018-12-16T02:32:14.643Z,64.50
2018-12-16T02:34:48.610Z,64.62
2018-12-16T02:37:19.715Z,64.43
2018-12-16T02:39:50.656Z,63.87
2018-12-16T02:42:22.163Z,64.70
2018-12-16T02:44:53.474Z,64.57
2018-12-16T02:47:24.348Z,63.75
2018-12-16T02:49:55.577Z,64.04
2018-12-16T02:52:26.658Z,63.50
2018-12-16T02:55:00.339Z,64.10
2018-12-16T02:57:31.825Z,64.43
2018-12-16T03:00:04.136Z,63.90
2018-12-16T03:02:37.817Z,63.66
2018-12-16T03:05:07.533Z,64.39
2018-12-16T03:07:38.404Z,64.09
2018-12-16T03:10:09.548Z,64.00
2018-12-16T03:12:41.243Z,63.25
2018-12-16T03:15:12.474Z,63.98
2018-12-16T03:17:43.427Z,63.71
2018-12-16T03:20:14.444Z,63.30
2018-12-16T03:22:45.439Z,63.32
2018-12-16T03:25:16.492Z,63.68
2018-12-16T03:27:47.503Z,63.07
2018-12-16T03:30:18.556Z,63.69
2018-12-16T03:32:49.375Z,63.46
2018-12-16T03:35:22.931Z,63.83
2018-12-16T03:37:57.010Z,63.61
2018-12-16T03:40:26.335Z,63.57
2018-12-16T03:42:57.455Z,63.17
2018-12-16T03:45:30.940Z,63.48
2018-12-16T03:48:02.555Z,63.81
2018-12-16T03:50:33.403Z,63.88
2018-12-16T03:53:06.826Z,63.67
2018-12-16T03:55:43.029Z,62.94
2018-12-16T03:58:14.339Z,63.39
2018-12-16T04:00:48.100Z,62.99
2018-12-16T04:05:50.044Z,63.19
2018-12-16T04:08:21.242Z,63.31
2018-12-16T04:10:52.063Z,63.97
2018-12-16T04:13:23.820Z,63.47
2018-12-16T04:15:57.792Z,63.35
2018-12-16T04:18:28.747Z,63.09
2018-12-16T04:21:02.422Z,63.34
2018-12-16T04:23:33.844Z,63.13
2018-12-16T04:26:04.799Z,62.90
2018-12-16T04:28:36.221Z,62.93
2018-12-16T04:31:07.971Z,63.12
2018-12-16T04:33:38.997Z,63.69
2018-12-16T04:36:09.849Z,63.34
2018-12-16T04:38:41.178Z,63.41
2018-12-16T04:41:14.613Z,62.81
2018-12-16T04:43:46.178Z,63.09
2018-12-16T04:46:17.802Z,62.81
2018-12-16T04:48:49.180Z,62.86
2018-12-16T04:51:20.180Z,63.04
2018-12-16T04:53:53.979Z,63.17
2018-12-16T04:56:23.518Z,63.03
2018-12-16T04:58:54.588Z,62.63
2018-12-16T05:01:25.348Z,62.99
2018-12-16T05:03:57.459Z,62.24
2018-12-16T05:06:28.554Z,62.33
2018-12-16T05:09:03.797Z,62.66
2018-12-16T05:11:36.797Z,63.14
2018-12-16T05:14:06.475Z,63.16
2018-12-16T05:16:38.359Z,63.82
2018-12-16T05:19:09.684Z,64.54
2018-12-16T05:21:40.617Z,64.50
2018-12-16T05:24:11.867Z,65.38
2018-12-16T05:26:42.556Z,64.82
2018-12-16T05:29:13.470Z,65.28
2018-12-16T05:31:44.748Z,65.66
2018-12-16T05:34:16.549Z,68.55
2018-12-16T05:36:50.063Z,68.68
2018-12-16T05:39:21.518Z,70.00
2018-12-16T05:41:53.299Z,70.00
2018-12-16T05:44:24.275Z,71.49
2018-12-16T05:47:02.001Z,71.95
2018-12-16T05:49:33.435Z,72.07
2018-12-16T05:52:04.475Z,72.94
2018-12-16T05:54:35.538Z,73.31
2018-12-16T05:57:09.119Z,74.35
2018-12-16T05:59:40.567Z,75.09
2018-12-16T06:02:11.699Z,75.06
2018-12-16T06:04:44.972Z,74.31
2018-12-16T06:07:16.466Z,75.84
2018-12-16T06:09:47.611Z,74.45
2018-12-16T06:12:18.821Z,75.90
2018-12-16T06:14:50.500Z,75.13
2018-12-16T06:17:22.184Z,74.27
2018-12-16T06:19:53.087Z,74.33
2018-12-16T06:22:26.201Z,73.66
2018-12-16T06:24:57.947Z,74.10
2018-12-16T06:27:29.191Z,72.75
2018-12-16T06:30:00.453Z,73.43
2018-12-16T06:32:31.589Z,73.42
2018-12-16T06:35:02.857Z,73.19
2018-12-16T06:37:33.839Z,73.10
2018-12-16T06:40:05.232Z,74.16
2018-12-16T06:42:36.567Z,72.15
2018-12-16T06:45:07.943Z,71.60
2018-12-16T06:47:39.472Z,71.96
2018-12-16T06:50:10.434Z,72.46
2018-12-16T06:52:41.347Z,73.12
2018-12-16T06:55:15.060Z,75.75
2018-12-16T06:57:46.696Z,73.27
2018-12-16T07:00:18.334Z,73.10
2018-12-16T07:02:53.136Z,72.71
2018-12-16T07:05:24.339Z,71.86
2018-12-16T07:07:57.907Z,74.02
2018-12-16T07:10:29.431Z,72.93
2018-12-16T07:13:08.743Z,73.31
2018-12-16T07:15:40.155Z,74.76
2018-12-16T07:18:11.253Z,76.06
2018-12-16T07:20:42.106Z,75.33
2018-12-16T07:23:13.412Z,75.81
2018-12-16T07:25:44.986Z,75.89
2018-12-16T07:28:18.373Z,76.29
2018-12-16T07:30:49.599Z,74.98
2018-12-16T07:33:20.802Z,74.83
2018-12-16T07:35:52.492Z,75.15
2018-12-16T07:38:23.485Z,74.95
2018-12-16T07:40:54.527Z,77.29
2018-12-16T07:43:25.453Z,77.41
2018-12-16T07:45:56.399Z,75.88
2018-12-16T07:48:31.289Z,76.82
2018-12-16T07:51:05.019Z,79.02
2018-12-16T07:53:34.298Z,78.82
2018-12-16T07:56:05.638Z,77.47
2018-12-16T07:58:36.689Z,76.55
2018-12-16T08:01:07.587Z,75.88
2018-12-16T08:03:38.571Z,77.14
2018-12-16T08:06:08.023Z,76.48
2018-12-16T08:08:39.615Z,78.09
2018-12-16T08:11:11.332Z,78.36
2018-12-16T08:13:42.344Z,77.03
2018-12-16T08:16:15.834Z,75.93
2018-12-16T08:18:47.295Z,75.50
2018-12-16T08:21:18.775Z,75.70
2018-12-16T08:23:49.765Z,77.18
2018-12-16T08:26:20.947Z,79.11
2018-12-16T08:28:54.743Z,77.64
2018-12-16T08:31:25.637Z,77.06
2018-12-16T08:33:59.634Z,78.21
2018-12-16T08:36:30.738Z,78.37
2018-12-16T08:39:06.115Z,78.30
2018-12-16T08:41:37.922Z,76.83
2018-12-16T08:44:09.797Z,78.42
2018-12-16T08:46:41.774Z,77.05
2018-12-16T08:49:12.938Z,78.52
2018-12-16T08:51:43.945Z,77.83
2018-12-16T08:54:17.558Z,78.10
2018-12-16T08:56:49.069Z,78.62
2018-12-16T08:59:20.076Z,79.23
2018-12-16T09:01:51.190Z,77.73
2018-12-16T09:04:24.998Z,77.26
2018-12-16T09:06:58.747Z,77.92
2018-12-16T09:09:30.811Z,77.91
2018-12-16T09:12:02.069Z,77.43
2018-12-16T09:14:33.079Z,76.89
2018-12-16T09:17:04.234Z,78.88
2018-12-16T09:19:35.216Z,78.22
2018-12-16T09:22:05.996Z,78.00
2018-12-16T09:24:39.483Z,77.22
2018-12-16T09:27:10.822Z,77.83
2018-12-16T09:29:42.950Z,77.54
2018-12-16T09:32:14.579Z,76.87
2018-12-16T09:34:45.509Z,78.24
2018-12-16T09:37:16.684Z,78.89
2018-12-16T09:39:48.220Z,77.68
2018-12-16T09:42:19.380Z,78.67
2018-12-16T09:44:50.620Z,78.04
2018-12-16T09:47:24.559Z,78.25
2018-12-16T09:49:55.767Z,77.01
2018-12-16T09:52:26.564Z,78.37
2018-12-16T09:54:57.562Z,78.26
2018-12-16T09:57:31.163Z,78.39
2018-12-16T10:00:03.480Z,76.82
2018-12-16T10:02:32.719Z,76.77
2018-12-16T10:05:04.305Z,76.68
2018-12-16T10:07:35.740Z,76.38
2018-12-16T10:10:09.947Z,76.96
2018-12-16T10:12:41.707Z,75.49
2018-12-16T10:15:12.707Z,75.15
2018-12-16T10:17:43.744Z,75.48
2018-12-16T10:20:14.687Z,75.98
2018-12-16T10:22:45.514Z,76.63
2018-12-16T10:25:16.503Z,76.19
2018-12-16T10:27:47.676Z,77.54
2018-12-16T10:30:21.294Z,78.91
2018-12-16T10:35:44.832Z,78.34
2018-12-16T10:38:16.203Z,77.63
2018-12-16T10:40:47.183Z,77.62
2018-12-16T10:43:18.203Z,77.17
2018-12-16T10:45:49.325Z,76.89
2018-12-16T10:48:21.147Z,77.16
2018-12-16T10:50:52.149Z,77.97
2018-12-16T10:53:26.455Z,77.65
2018-12-16T10:55:57.879Z,77.39
2018-12-16T10:58:28.825Z,77.05
2018-12-16T11:01:05.240Z,76.31
2018-12-16T11:03:36.662Z,77.04
2018-12-16T11:06:07.839Z,76.80
2018-12-16T11:08:39.299Z,76.52
2018-12-16T11:11:10.559Z,77.00
2018-12-16T11:13:41.803Z,76.72
2018-12-16T11:16:12.802Z,76.43
2018-12-16T11:18:43.933Z,76.71
2018-12-16T11:21:14.992Z,76.29
2018-12-16T11:23:45.908Z,76.81
2018-12-16T11:26:17.792Z,77.19
2018-12-16T11:28:48.899Z,77.79
2018-12-16T11:31:19.871Z,76.78
2018-12-16T11:33:51.519Z,77.12
2018-12-16T11:36:22.523Z,78.32
2018-12-16T11:38:54.313Z,77.02
2018-12-16T11:41:25.223Z,77.72
2018-12-16T11:43:56.292Z,76.01
2018-12-16T11:46:27.062Z,76.85
2018-12-16T11:48:57.943Z,76.79
2018-12-16T11:51:27.437Z,76.55
2018-12-16T11:53:59.163Z,75.97
2018-12-16T11:56:31.051Z,76.35
2018-12-16T11:59:01.937Z,77.02
2018-12-16T12:01:35.683Z,77.56
2018-12-16T12:04:06.919Z,76.80
2018-12-16T12:06:38.083Z,78.33
2018-12-16T12:09:09.279Z,77.36
2018-12-16T12:11:41.021Z,77.20
2018-12-16T12:14:11.992Z,78.25
2018-12-16T12:16:45.444Z,77.83
2018-12-16T12:19:16.572Z,78.57
2018-12-16T12:21:47.813Z,77.99
2018-12-16T12:24:18.803Z,78.33
2018-12-16T12:26:49.925Z,78.84
2018-12-16T12:29:21.490Z,78.41
2018-12-16T12:31:52.548Z,77.93
2018-12-16T12:34:23.663Z,79.07
2018-12-16T12:36:57.123Z,78.62
2018-12-16T12:39:30.819Z,78.15
2018-12-16T12:42:02.072Z,79.51
2018-12-16T12:44:33.399Z,78.93
2018-12-16T12:47:04.499Z,78.81
2018-12-16T12:49:35.287Z,78.54
2018-12-16T12:52:06.419Z,78.85
2018-12-16T12:54:37.663Z,78.94
2018-12-16T12:57:09.442Z,79.54
2018-12-16T12:59:40.810Z,79.57
2018-12-16T13:02:11.878Z,79.84
2018-12-16T13:04:45.327Z,79.42
2018-12-16T13:07:16.784Z,78.96
2018-12-16T13:09:47.600Z,80.12
2018-12-16T13:12:18.796Z,79.40
2018-12-16T13:14:49.844Z,79.47
2018-12-16T13:17:24.314Z,79.86
2018-12-16T13:19:55.973Z,78.96
2018-12-16T13:22:29.774Z,78.13
2018-12-16T13:25:19.575Z,77.72
2018-12-16T13:27:51.411Z,79.59
2018-12-16T13:30:22.534Z,79.17
2018-12-16T13:32:53.416Z,79.16
2018-12-16T13:37:56.415Z,79.41
2018-12-16T13:40:27.463Z,80.03
2018-12-16T13:42:59.379Z,79.52
2018-12-16T13:45:30.527Z,79.83
2018-12-16T13:48:03.946Z,79.68
2018-12-16T13:50:37.783Z,79.95
2018-12-16T13:53:12.881Z,79.87
2018-12-16T13:58:46.181Z,80.37
2018-12-16T14:01:17.003Z,80.17
2018-12-16T14:03:47.879Z,80.19
2018-12-16T14:06:18.708Z,81.37
2018-12-16T14:08:52.233Z,80.48
2018-12-16T14:11:24.158Z,79.71
2018-12-16T14:13:58.147Z,80.61
2018-12-16T14:16:29.680Z,80.76
2018-12-16T14:19:00.919Z,80.66
2018-12-16T14:21:32.168Z,81.58
2018-12-16T14:24:04.033Z,81.39
2018-12-16T14:26:39.769Z,82.03
2018-12-16T14:29:10.968Z,81.71
2018-12-16T14:31:44.482Z,81.19
2018-12-16T14:34:15.983Z,81.39
2018-12-16T14:41:51.417Z,79.95
2018-12-16T14:44:22.245Z,80.60
2018-12-16T14:46:53.366Z,80.36
2018-12-16T14:49:24.419Z,80.95
2018-12-16T14:51:55.286Z,81.42
2018-12-16T14:54:27.005Z,81.03
2018-12-16T14:57:00.879Z,80.77
2018-12-16T14:59:32.252Z,81.73
2018-12-16T15:02:03.445Z,81.76
2018-12-16T15:04:35.259Z,81.60
2018-12-16T15:07:06.731Z,80.64
2018-12-16T15:09:37.983Z,81.43
2018-12-16T15:12:09.247Z,82.19
2018-12-16T15:14:40.192Z,80.99
2018-12-16T15:17:13.725Z,80.85
2018-12-16T15:19:47.762Z,81.42
2018-12-16T15:22:19.299Z,81.40
2018-12-16T15:24:53.543Z,81.16
2018-12-16T15:27:24.867Z,81.97
2018-12-16T15:30:01.569Z,80.65
2018-12-16T15:32:36.373Z,81.47
2018-12-16T15:35:07.835Z,80.70
2018-12-16T15:37:38.743Z,80.88
2018-12-16T15:40:11.984Z,79.93
2018-12-16T15:45:23.007Z,80.66
2018-12-16T15:47:54.667Z,80.31
2018-12-16T15:50:26.417Z,80.34
2018-12-16T15:52:57.809Z,80.93
2018-12-16T15:55:29.486Z,81.31
2018-12-16T15:58:03.168Z,81.69
2018-12-16T16:00:34.395Z,81.46
2018-12-16T16:03:05.474Z,80.54
2018-12-16T16:05:40.082Z,81.16
2018-12-16T16:08:16.469Z,82.63
2018-12-16T16:10:43.975Z,81.97
2018-12-16T16:13:15.925Z,81.36
2018-12-16T16:15:49.369Z,80.90
2018-12-16T16:18:20.783Z,82.15
2018-12-16T16:20:54.520Z,81.56
2018-12-16T16:23:29.369Z,81.26
2018-12-16T16:26:04.463Z,81.71
2018-12-16T16:28:38.567Z,81.24
2018-12-16T16:31:12.385Z,82.01
2018-12-16T16:33:43.708Z,82.07
2018-12-16T16:36:15.063Z,81.92
2018-12-16T16:38:48.741Z,81.79
2018-12-16T16:41:20.014Z,80.95
2018-12-16T16:43:53.686Z,83.71
2018-12-16T16:46:25.073Z,81.95
2018-12-16T16:48:55.937Z,82.92
2018-12-16T16:51:26.846Z,83.08
2018-12-16T16:53:57.971Z,83.39
2018-12-16T16:56:29.315Z,82.50
2018-12-16T16:59:00.170Z,81.36
2018-12-16T17:01:31.235Z,80.91
2018-12-16T17:04:02.571Z,81.70
2018-12-16T17:06:34.232Z,81.60
2018-12-16T17:09:07.470Z,82.42
2018-12-16T17:11:38.520Z,80.67
2018-12-16T17:14:08.418Z,82.58
2018-12-16T17:16:40.579Z,81.63
2018-12-16T17:19:15.336Z,82.21
2018-12-16T17:21:46.670Z,83.01
2018-12-16T17:24:18.622Z,82.52
2018-12-16T17:26:50.269Z,81.33
2018-12-16T17:29:21.256Z,81.62
2018-12-16T17:31:52.807Z,80.23
2018-12-16T17:34:26.336Z,81.76
2018-12-16T17:36:57.707Z,81.01
2018-12-16T17:39:28.797Z,81.16
2018-12-16T17:42:02.462Z,81.59
2018-12-16T17:44:36.785Z,81.40
2018-12-16T17:47:08.536Z,82.71
2018-12-16T17:49:39.455Z,81.94
2018-12-16T17:52:10.874Z,82.65
2018-12-16T17:54:44.812Z,81.15
2018-12-16T17:57:16.208Z,81.41
2018-12-16T17:59:48.038Z,81.20
2018-12-16T18:02:18.957Z,81.85
2018-12-16T18:04:49.760Z,81.16
2018-12-16T18:07:20.963Z,81.43
2018-12-16T18:09:52.703Z,81.57
2018-12-16T18:12:23.518Z,82.37
2018-12-16T18:14:57.894Z,81.97
2018-12-16T18:17:29.259Z,82.07
2018-12-16T18:20:00.707Z,82.01
2018-12-16T18:22:31.621Z,82.41
2018-12-16T18:25:03.123Z,82.49
2018-12-16T18:27:34.627Z,81.58
2018-12-16T18:30:08.604Z,81.51
2018-12-16T18:32:39.647Z,81.08
2018-12-16T18:35:11.292Z,82.20
2018-12-16T18:37:42.587Z,82.18
2018-12-16T18:40:14.426Z,82.16
2018-12-16T18:42:48.008Z,82.13
2018-12-16T18:45:22.010Z,82.23
2018-12-16T18:47:53.287Z,82.14
2018-12-16T18:50:26.803Z,82.93
2018-12-16T18:52:58.307Z,81.94
2018-12-16T18:55:29.521Z,81.73
2018-12-16T18:58:00.335Z,83.27
2018-12-16T19:00:34.052Z,83.45
2018-12-16T19:03:05.403Z,82.79
2018-12-16T19:05:36.303Z,83.43
2018-12-16T19:08:07.535Z,82.77
2018-12-16T19:10:38.537Z,83.71
2018-12-16T19:13:09.628Z,82.76
2018-12-16T19:15:40.691Z,82.52
2018-12-16T19:18:11.458Z,81.79
2018-12-16T19:20:45.008Z,84.63
2018-12-16T19:23:16.463Z,83.46
2018-12-16T19:25:47.537Z,82.57
2018-12-16T19:28:19.242Z,81.88
2018-12-16T19:30:50.565Z,82.38
2018-12-16T19:33:21.667Z,81.04
2018-12-16T19:35:55.187Z,81.92
2018-12-16T19:38:26.543Z,83.54
2018-12-16T19:40:57.531Z,81.69
2018-12-16T19:43:30.674Z,82.28
2018-12-16T19:46:01.704Z,82.46
2018-12-16T19:48:32.792Z,81.42
2018-12-16T19:51:04.139Z,82.00
2018-12-16T19:53:33.824Z,81.99
2018-12-16T19:56:04.827Z,81.54
2018-12-16T19:58:36.518Z,82.71
2018-12-16T20:01:07.363Z,82.95
2018-12-16T20:03:43.014Z,81.45
2018-12-16T20:06:19.724Z,81.68
2018-12-16T20:08:50.827Z,82.10
2018-12-16T20:11:22.127Z,81.86
2018-12-16T20:13:55.522Z,82.40
2018-12-16T20:16:29.378Z,81.79
2018-12-16T20:19:00.913Z,81.79
2018-12-16T20:21:31.861Z,82.30
2018-12-16T20:24:03.279Z,82.39
2018-12-16T20:26:37.480Z,82.90
2018-12-16T20:29:09.011Z,82.90
2018-12-16T20:31:42.619Z,81.67
2018-12-16T20:34:14.234Z,82.72
2018-12-16T20:36:47.662Z,82.72
2018-12-16T20:39:19.052Z,82.19
2018-12-16T20:41:50.283Z,81.97
2018-12-16T20:44:21.032Z,81.53
2018-12-16T20:46:52.747Z,82.31
2018-12-16T20:49:24.127Z,82.57
2018-12-16T20:51:55.012Z,82.77
2018-12-16T20:54:26.039Z,82.23
2018-12-16T20:56:57.127Z,81.97
2018-12-16T20:59:28.196Z,84.15
2018-12-16T21:01:59.187Z,82.64
2018-12-16T21:04:30.770Z,82.69
2018-12-16T21:07:02.055Z,83.79
2018-12-16T21:09:35.733Z,82.82
2018-12-16T21:12:11.850Z,82.78
2018-12-16T21:14:48.236Z,82.21
2018-12-16T21:17:25.416Z,82.21
2018-12-16T21:19:59.244Z,82.49
2018-12-16T21:22:31.050Z,83.26
2018-12-16T21:25:02.046Z,82.45
2018-12-16T21:27:35.663Z,82.90
2018-12-16T21:30:07.306Z,83.74
2018-12-16T21:32:39.195Z,82.85
2018-12-16T21:35:10.089Z,82.69
2018-12-16T21:37:43.322Z,82.61
2018-12-16T21:40:17.528Z,84.24
2018-12-16T21:42:48.866Z,85.49
2018-12-16T21:45:19.902Z,85.38
2018-12-16T21:47:53.195Z,84.00
2018-12-16T21:50:24.736Z,83.75
2018-12-16T21:52:55.899Z,86.44
2018-12-16T21:55:29.312Z,86.35
2018-12-16T21:58:03.260Z,84.52
2018-12-16T22:00:34.686Z,84.43
2018-12-16T22:03:05.527Z,85.49
2018-12-16T22:05:36.571Z,84.44
2018-12-16T22:08:07.443Z,84.31
2018-12-16T22:10:38.407Z,83.79
2018-12-16T22:13:09.491Z,83.97
2018-12-16T22:15:38.861Z,83.27
2018-12-16T22:18:10.527Z,82.87
2018-12-16T22:20:41.316Z,84.13
2018-12-16T22:23:12.459Z,82.11
2018-12-16T22:25:43.590Z,82.19
2018-12-16T22:28:17.275Z,82.70
2018-12-16T22:30:46.911Z,83.20
2018-12-16T22:33:20.567Z,83.38
2018-12-16T22:35:51.971Z,82.50
2018-12-16T22:38:25.319Z,82.79
2018-12-16T22:40:56.691Z,82.49
2018-12-16T22:43:27.693Z,82.52
2018-12-16T22:45:59.360Z,82.60
2018-12-16T22:48:31.384Z,82.14
2018-12-16T22:51:03.339Z,81.89
2018-12-16T22:53:34.217Z,82.02
2018-12-16T22:56:05.897Z,82.39
2018-12-16T22:58:37.021Z,82.05
2018-12-16T23:01:14.159Z,81.94
2018-12-16T23:03:47.686Z,81.27
2018-12-16T23:06:19.333Z,82.31
2018-12-16T23:08:50.275Z,82.20
2018-12-16T23:11:21.246Z,82.25
2018-12-16T23:13:56.827Z,82.92
2018-12-16T23:16:28.295Z,82.69
2018-12-16T23:18:59.083Z,82.77
2018-12-16T23:21:30.326Z,82.84
2018-12-16T23:24:01.360Z,82.36
2018-12-16T23:26:32.220Z,83.05
2018-12-16T23:29:03.543Z,82.60
2018-12-16T23:34:38.518Z,82.62
2018-12-16T23:37:09.690Z,82.62
2018-12-16T23:39:40.553Z,83.63
2018-12-16T23:42:11.463Z,83.51
2018-12-16T23:44:40.886Z,83.68
2018-12-16T23:47:11.835Z,83.96
2018-12-16T23:49:42.830Z,85.29
2018-12-16T23:52:14.091Z,84.81
2018-12-16T23:54:45.617Z,85.15
2018-12-16T23:57:16.387Z,84.28
2018-12-16T23:59:48.147Z,83.70
